sensor_id;sensor_type;location;lat;lon;timestamp;pressure;altitude;pressure_sealevel;temperature;humidity
30021;BME280;16861;52.294;7.760;2024-02-21T05:11:43;100052.47;;;9.96;83.25
30021;BME280;16861;52.294;7.760;2024-02-21T05:14:13;100034.06;;;9.96;83.31
30021;BME280;16861;52.294;7.760;2024-02-21T05:16:40;100039.88;;;10.03;83.62
30021;BME280;16861;52.294;7.760;2024-02-21T05:19:07;100041.56;;;10.04;83.60
30021;BME280;16861;52.294;7.760;2024-02-21T05:21:35;100049.31;;;10.07;83.39
30021;BME280;16861;52.294;7.760;2024-02-21T05:24:02;100044.81;;;10.09;83.65
30021;BME280;16861;52.294;7.760;2024-02-21T05:26:31;100029.81;;;10.11;83.08
30021;BME280;16861;52.294;7.760;2024-02-21T05:28:59;100038.47;;;10.13;82.92
30021;BME280;16861;52.294;7.760;2024-02-21T05:31:54;100021.84;;;10.13;82.13
30021;BME280;16861;52.294;7.760;2024-02-21T05:34:22;100032.06;;;10.19;82.78
30021;BME280;16861;52.294;7.760;2024-02-21T05:36:50;100025.94;;;10.19;82.48
30021;BME280;16861;52.294;7.760;2024-02-21T05:39:18;100018.81;;;10.21;82.46
30021;BME280;16861;52.294;7.760;2024-02-21T05:41:47;100014.41;;;10.21;82.53
30021;BME280;16861;52.294;7.760;2024-02-21T05:44:15;100022.13;;;10.24;82.46
30021;BME280;16861;52.294;7.760;2024-02-21T05:46:43;100023.06;;;10.23;82.25
30021;BME280;16861;52.294;7.760;2024-02-21T05:49:10;100006.34;;;10.24;82.33
30021;BME280;16861;52.294;7.760;2024-02-21T05:51:38;100022.00;;;10.27;82.51
30021;BME280;16861;52.294;7.760;2024-02-21T05:54:05;100024.63;;;10.27;82.03
30021;BME280;16861;52.294;7.760;2024-02-21T05:56:34;100026.31;;;10.28;82.63
30021;BME280;16861;52.294;7.760;2024-02-21T05:59:01;100041.16;;;10.29;82.11
30021;BME280;16861;52.294;7.760;2024-02-21T06:01:29;100020.03;;;10.31;82.29
30021;BME280;16861;52.294;7.760;2024-02-21T06:03:56;100024.47;;;10.30;81.94
30021;BME280;16861;52.294;7.760;2024-02-21T06:06:24;100021.84;;;10.30;81.79
30021;BME280;16861;52.294;7.760;2024-02-21T06:08:52;100031.50;;;10.30;81.74
30021;BME280;16861;52.294;7.760;2024-02-21T06:11:19;100019.09;;;10.32;81.98
30021;BME280;16861;52.294;7.760;2024-02-21T06:13:46;100026.16;;;10.32;81.89
30021;BME280;16861;52.294;7.760;2024-02-21T06:16:14;100007.81;;;10.30;81.21
30021;BME280;16861;52.294;7.760;2024-02-21T06:18:41;99997.22;;;10.32;81.77
30021;BME280;16861;52.294;7.760;2024-02-21T06:21:08;99990.34;;;10.29;81.50
30021;BME280;16861;52.294;7.760;2024-02-21T06:23:37;99987.72;;;10.29;81.26
30021;BME280;16861;52.294;7.760;2024-02-21T06:26:04;99994.66;;;10.30;81.46
30021;BME280;16861;52.294;7.760;2024-02-21T06:28:31;99993.72;;;10.31;81.20
30021;BME280;16861;52.294;7.760;2024-02-21T06:30:58;99981.44;;;10.32;81.44
30021;BME280;16861;52.294;7.760;2024-02-21T06:33:27;99990.16;;;10.32;81.22
30021;BME280;16861;52.294;7.760;2024-02-21T06:35:54;99977.13;;;10.30;81.26
30021;BME280;16861;52.294;7.760;2024-02-21T06:38:22;99985.06;;;10.29;81.02
30021;BME280;16861;52.294;7.760;2024-02-21T06:40:49;99971.84;;;10.30;81.41
30021;BME280;16861;52.294;7.760;2024-02-21T06:43:20;99980.66;;;10.29;80.61
30021;BME280;16861;52.294;7.760;2024-02-21T06:45:48;99974.38;;;10.32;81.06
30021;BME280;16861;52.294;7.760;2024-02-21T06:48:18;99968.28;;;10.32;81.08
30021;BME280;16861;52.294;7.760;2024-02-21T06:50:46;99960.38;;;10.32;80.66
30021;BME280;16861;52.294;7.760;2024-02-21T06:53:13;99964.72;;;10.33;81.13
30021;BME280;16861;52.294;7.760;2024-02-21T06:55:40;99960.38;;;10.32;80.90
30021;BME280;16861;52.294;7.760;2024-02-21T06:58:07;99958.59;;;10.32;80.70
30021;BME280;16861;52.294;7.760;2024-02-21T07:00:39;99960.38;;;10.32;80.99
30021;BME280;16861;52.294;7.760;2024-02-21T07:03:07;99962.06;;;10.33;80.98
30021;BME280;16861;52.294;7.760;2024-02-21T07:05:34;99980.50;;;10.33;80.69
30021;BME280;16861;52.294;7.760;2024-02-21T07:08:01;99978.72;;;10.33;80.99
30021;BME280;16861;52.294;7.760;2024-02-21T07:10:31;99967.50;;;10.29;80.34
30021;BME280;16861;52.294;7.760;2024-02-21T07:12:58;99978.88;;;10.30;80.74
30021;BME280;16861;52.294;7.760;2024-02-21T07:15:27;99977.94;;;10.31;80.86
30021;BME280;16861;52.294;7.760;2024-02-21T07:17:56;99991.19;;;10.29;80.58
30021;BME280;16861;52.294;7.760;2024-02-21T07:20:23;99982.38;;;10.30;80.73
30021;BME280;16861;52.294;7.760;2024-02-21T07:22:50;99976.25;;;10.30;80.55
30021;BME280;16861;52.294;7.760;2024-02-21T07:25:17;99979.63;;;10.32;80.84
30021;BME280;16861;52.294;7.760;2024-02-21T07:27:44;99991.97;;;10.32;80.52
30021;BME280;16861;52.294;7.760;2024-02-21T07:30:12;99977.88;;;10.33;80.72
30021;BME280;16861;52.294;7.760;2024-02-21T07:32:43;99985.59;;;10.36;80.77
30021;BME280;16861;52.294;7.760;2024-02-21T07:35:10;99985.59;;;10.36;80.74
30021;BME280;16861;52.294;7.760;2024-02-21T07:37:39;99982.03;;;10.37;80.72
30021;BME280;16861;52.294;7.760;2024-02-21T07:40:12;99979.47;;;10.35;79.40
30021;BME280;16861;52.294;7.760;2024-02-21T07:42:40;99982.91;;;10.37;80.12
30021;BME280;16861;52.294;7.760;2024-02-21T07:45:08;99970.66;;;10.36;79.77
30021;BME280;16861;52.294;7.760;2024-02-21T07:47:35;99991.81;;;10.35;80.11
30021;BME280;16861;52.294;7.760;2024-02-21T07:50:06;99969.97;;;10.33;78.91
30021;BME280;16861;52.294;7.760;2024-02-21T07:52:34;99965.38;;;10.36;79.75
30021;BME280;16861;52.294;7.760;2024-02-21T07:55:02;99965.31;;;10.38;80.18
30021;BME280;16861;52.294;7.760;2024-02-21T07:57:30;99973.22;;;10.38;79.96
30021;BME280;16861;52.294;7.760;2024-02-21T07:59:58;99962.88;;;10.35;79.58
30021;BME280;16861;52.294;7.760;2024-02-21T08:02:25;99960.97;;;10.37;79.89
30021;BME280;16861;52.294;7.760;2024-02-21T08:04:52;99956.66;;;10.36;80.40
30021;BME280;16861;52.294;7.760;2024-02-21T08:07:19;99955.66;;;10.38;80.28
30021;BME280;16861;52.294;7.760;2024-02-21T08:09:46;99953.09;;;10.37;79.77
30021;BME280;16861;52.294;7.760;2024-02-21T08:12:13;99940.78;;;10.37;79.69
30021;BME280;16861;52.294;7.760;2024-02-21T08:14:41;99942.50;;;10.38;79.91
30021;BME280;16861;52.294;7.760;2024-02-21T08:17:08;99938.84;;;10.41;80.16
30021;BME280;16861;52.294;7.760;2024-02-21T08:19:36;99939.78;;;10.40;79.64
30021;BME280;16861;52.294;7.760;2024-02-21T08:22:03;99930.94;;;10.41;79.83
30021;BME280;16861;52.294;7.760;2024-02-21T08:24:30;99932.50;;;10.45;80.13
30021;BME280;16861;52.294;7.760;2024-02-21T08:26:57;99936.09;;;10.44;79.77
30021;BME280;16861;52.294;7.760;2024-02-21T08:29:24;99922.66;;;10.49;79.89
30021;BME280;16861;52.294;7.760;2024-02-21T08:31:53;99909.50;;;10.49;79.64
30021;BME280;16861;52.294;7.760;2024-02-21T08:34:20;99908.41;;;10.53;79.71
30021;BME280;16861;52.294;7.760;2024-02-21T08:36:49;99912.72;;;10.54;79.33
30021;BME280;16861;52.294;7.760;2024-02-21T08:39:16;99898.56;;;10.57;79.66
30021;BME280;16861;52.294;7.760;2024-02-21T08:41:43;99922.28;;;10.57;79.23
30021;BME280;16861;52.294;7.760;2024-02-21T08:44:23;99902.91;;;10.58;78.71
30021;BME280;16861;52.294;7.760;2024-02-21T08:46:54;99907.22;;;10.59;77.95
30021;BME280;16861;52.294;7.760;2024-02-21T08:49:21;99912.34;;;10.62;78.87
30021;BME280;16861;52.294;7.760;2024-02-21T08:51:49;99906.91;;;10.65;78.88
30021;BME280;16861;52.294;7.760;2024-02-21T08:54:16;99896.38;;;10.65;78.19
30021;BME280;16861;52.294;7.760;2024-02-21T08:56:43;99889.22;;;10.67;78.89
30021;BME280;16861;52.294;7.760;2024-02-21T08:59:11;99890.84;;;10.69;79.16
30021;BME280;16861;52.294;7.760;2024-02-21T09:01:38;99888.88;;;10.73;79.29
30021;BME280;16861;52.294;7.760;2024-02-21T09:04:05;99893.03;;;10.77;79.47
30021;BME280;16861;52.294;7.760;2024-02-21T09:06:33;99887.69;;;10.79;78.65
30021;BME280;16861;52.294;7.760;2024-02-21T09:09:04;99884.81;;;10.84;78.92
30021;BME280;16861;52.294;7.760;2024-02-21T09:11:34;99895.94;;;10.89;79.31
30021;BME280;16861;52.294;7.760;2024-02-21T09:14:01;99888.69;;;10.92;79.30
30021;BME280;16861;52.294;7.760;2024-02-21T09:16:33;99900.00;;;10.94;78.10
30021;BME280;16861;52.294;7.760;2024-02-21T09:19:00;99907.84;;;10.96;77.88
30021;BME280;16861;52.294;7.760;2024-02-21T09:21:28;99877.75;;;11.00;78.53
30021;BME280;16861;52.294;7.760;2024-02-21T09:23:55;99878.50;;;11.02;77.91
30021;BME280;16861;52.294;7.760;2024-02-21T09:26:26;99872.28;;;11.03;78.03
30021;BME280;16861;52.294;7.760;2024-02-21T09:28:55;99873.16;;;11.04;77.45
30021;BME280;16861;52.294;7.760;2024-02-21T09:31:22;99865.91;;;11.07;78.12
30021;BME280;16861;52.294;7.760;2024-02-21T09:33:50;99856.22;;;11.08;77.76
30021;BME280;16861;52.294;7.760;2024-02-21T09:36:18;99853.31;;;11.13;78.54
30021;BME280;16861;52.294;7.760;2024-02-21T09:38:45;99852.19;;;11.17;78.38
30021;BME280;16861;52.294;7.760;2024-02-21T09:41:16;99850.25;;;11.20;78.25
30021;BME280;16861;52.294;7.760;2024-02-21T09:43:52;99844.78;;;11.24;77.88
30021;BME280;16861;52.294;7.760;2024-02-21T09:47:02;99845.81;;;11.21;73.62
30021;BME280;16861;52.294;7.760;2024-02-21T09:49:34;99843.56;;;11.29;77.35
30021;BME280;16861;52.294;7.760;2024-02-21T09:52:04;99844.44;;;11.30;77.42
30021;BME280;16861;52.294;7.760;2024-02-21T09:54:32;99834.84;;;11.29;76.63
30021;BME280;16861;52.294;7.760;2024-02-21T09:57:00;99841.72;;;11.31;77.29
30021;BME280;16861;52.294;7.760;2024-02-21T09:59:32;99847.81;;;11.32;77.26
30021;BME280;16861;52.294;7.760;2024-02-21T10:02:01;99842.47;;;11.33;77.13
30021;BME280;16861;52.294;7.760;2024-02-21T10:04:29;99848.50;;;11.36;77.24
30021;BME280;16861;52.294;7.760;2024-02-21T10:06:56;99844.06;;;11.36;76.53
30021;BME280;16861;52.294;7.760;2024-02-21T10:09:28;99838.88;;;11.34;74.91
30021;BME280;16861;52.294;7.760;2024-02-21T10:12:08;99834.47;;;11.35;74.51
30021;BME280;16861;52.294;7.760;2024-02-21T10:14:37;99835.91;;;11.41;76.70
30021;BME280;16861;52.294;7.760;2024-02-21T10:17:04;99828.00;;;11.41;76.49
30021;BME280;16861;52.294;7.760;2024-02-21T10:19:37;99817.44;;;11.41;76.31
30021;BME280;16861;52.294;7.760;2024-02-21T10:22:07;99839.28;;;11.43;75.64
30021;BME280;16861;52.294;7.760;2024-02-21T10:24:37;99812.00;;;11.44;76.60
30021;BME280;16861;52.294;7.760;2024-02-21T10:27:06;99816.50;;;11.42;75.38
30021;BME280;16861;52.294;7.760;2024-02-21T10:29:38;99840.22;;;11.42;71.15
30021;BME280;16861;52.294;7.760;2024-02-21T10:32:13;99808.50;;;11.43;71.31
30021;BME280;16861;52.294;7.760;2024-02-21T10:34:42;99799.66;;;11.44;75.03
30021;BME280;16861;52.294;7.760;2024-02-21T10:37:11;99805.88;;;11.43;75.99
30021;BME280;16861;52.294;7.760;2024-02-21T10:39:39;99804.28;;;11.41;75.40
30021;BME280;16861;52.294;7.760;2024-02-21T10:42:10;99791.19;;;11.39;74.82
30021;BME280;16861;52.294;7.760;2024-02-21T10:44:38;99791.28;;;11.38;75.35
30021;BME280;16861;52.294;7.760;2024-02-21T10:47:10;99781.59;;;11.38;75.63
30021;BME280;16861;52.294;7.760;2024-02-21T10:49:41;99801.81;;;11.38;73.59
30021;BME280;16861;52.294;7.760;2024-02-21T10:55:10;99770.28;;;11.36;73.85
30021;BME280;16861;52.294;7.760;2024-02-21T10:57:39;99757.00;;;11.38;75.23
30021;BME280;16861;52.294;7.760;2024-02-21T11:00:08;99757.00;;;11.38;74.45
30021;BME280;16861;52.294;7.760;2024-02-21T11:02:39;99753.34;;;11.40;74.93
30021;BME280;16861;52.294;7.760;2024-02-21T11:05:07;99751.16;;;11.47;75.31
30021;BME280;16861;52.294;7.760;2024-02-21T11:07:36;99754.56;;;11.49;74.39
30021;BME280;16861;52.294;7.760;2024-02-21T11:10:05;99747.41;;;11.51;74.63
30021;BME280;16861;52.294;7.760;2024-02-21T11:12:34;99724.25;;;11.56;74.89
30021;BME280;16861;52.294;7.760;2024-02-21T11:15:07;99727.00;;;11.55;72.47
30021;BME280;16861;52.294;7.760;2024-02-21T11:17:34;99708.25;;;11.59;74.96
30021;BME280;16861;52.294;7.760;2024-02-21T11:23:27;99707.03;;;11.65;72.67
30021;BME280;16861;52.294;7.760;2024-02-21T11:26:04;99698.94;;;11.68;72.51
30021;BME280;16861;52.294;7.760;2024-02-21T11:28:31;99687.25;;;11.72;74.64
30021;BME280;16861;52.294;7.760;2024-02-21T11:31:37;99691.84;;;11.69;68.47
30021;BME280;16861;52.294;7.760;2024-02-21T11:34:04;99675.75;;;11.73;74.11
30021;BME280;16861;52.294;7.760;2024-02-21T11:36:31;99680.25;;;11.71;73.82
30021;BME280;16861;52.294;7.760;2024-02-21T11:39:03;99683.03;;;11.70;72.57
30021;BME280;16861;52.294;7.760;2024-02-21T11:41:31;99671.53;;;11.71;74.42
30021;BME280;16861;52.294;7.760;2024-02-21T11:43:58;99691.84;;;11.69;73.33
30021;BME280;16861;52.294;7.760;2024-02-21T11:46:27;99686.97;;;11.63;72.63
30021;BME280;16861;52.294;7.760;2024-02-21T11:48:54;99676.59;;;11.59;73.06
30021;BME280;16861;52.294;7.760;2024-02-21T11:51:24;99672.19;;;11.60;73.32
30021;BME280;16861;52.294;7.760;2024-02-21T11:53:54;99657.59;;;11.54;70.87
30021;BME280;16861;52.294;7.760;2024-02-21T11:56:27;99657.41;;;11.57;72.54
30021;BME280;16861;52.294;7.760;2024-02-21T11:58:54;99648.66;;;11.57;73.16
30021;BME280;16861;52.294;7.760;2024-02-21T12:01:21;99652.97;;;11.58;73.57
30021;BME280;16861;52.294;7.760;2024-02-21T12:03:48;99638.00;;;11.58;73.56
30021;BME280;16861;52.294;7.760;2024-02-21T12:06:16;99652.97;;;11.58;72.92
30021;BME280;16861;52.294;7.760;2024-02-21T12:08:48;99623.88;;;11.59;73.54
30021;BME280;16861;52.294;7.760;2024-02-21T12:11:26;99612.38;;;11.60;74.21
30021;BME280;16861;52.294;7.760;2024-02-21T12:14:01;99608.25;;;11.56;72.38
30021;BME280;16861;52.294;7.760;2024-02-21T12:16:32;99601.84;;;11.60;74.02
30021;BME280;16861;52.294;7.760;2024-02-21T12:19:02;99602.59;;;11.63;73.25
30021;BME280;16861;52.294;7.760;2024-02-21T12:21:33;99593.66;;;11.65;73.96
30021;BME280;16861;52.294;7.760;2024-02-21T12:24:17;99579.59;;;11.65;72.20
30021;BME280;16861;52.294;7.760;2024-02-21T12:26:44;99581.00;;;11.70;74.56
30021;BME280;16861;52.294;7.760;2024-02-21T12:29:10;99582.69;;;11.71;74.31
30021;BME280;16861;52.294;7.760;2024-02-21T12:31:38;99585.47;;;11.70;73.59
30021;BME280;16861;52.294;7.760;2024-02-21T12:34:05;99568.78;;;11.69;74.25
30021;BME280;16861;52.294;7.760;2024-02-21T12:36:32;99568.88;;;11.68;73.85
30021;BME280;16861;52.294;7.760;2024-02-21T12:38:59;99548.81;;;11.65;73.74
30021;BME280;16861;52.294;7.760;2024-02-21T12:41:28;99538.56;;;11.60;73.21
30021;BME280;16861;52.294;7.760;2024-02-21T12:43:56;99530.03;;;11.57;73.40
30021;BME280;16861;52.294;7.760;2024-02-21T12:46:23;99518.75;;;11.55;74.03
30021;BME280;16861;52.294;7.760;2024-02-21T12:48:50;99517.16;;;11.52;73.84
30021;BME280;16861;52.294;7.760;2024-02-21T12:51:17;99488.25;;;11.51;74.18
30021;BME280;16861;52.294;7.760;2024-02-21T12:53:48;99485.63;;;11.51;74.69
30021;BME280;16861;52.294;7.760;2024-02-21T12:56:16;99468.75;;;11.53;75.25
30021;BME280;16861;52.294;7.760;2024-02-21T12:58:43;99454.63;;;11.54;74.24
30021;BME280;16861;52.294;7.760;2024-02-21T13:01:09;99441.16;;;11.59;75.65
30021;BME280;16861;52.294;7.760;2024-02-21T13:03:36;99469.94;;;11.62;75.27
30021;BME280;16861;52.294;7.760;2024-02-21T13:06:05;99456.47;;;11.67;75.13
30021;BME280;16861;52.294;7.760;2024-02-21T13:08:32;99464.25;;;11.68;74.65
30021;BME280;16861;52.294;7.760;2024-02-21T13:11:01;99443.81;;;11.72;74.49
30021;BME280;16861;52.294;7.760;2024-02-21T13:13:27;99444.44;;;11.76;74.73
30021;BME280;16861;52.294;7.760;2024-02-21T13:15:54;99407.66;;;11.74;73.54
30021;BME280;16861;52.294;7.760;2024-02-21T13:18:21;99401.19;;;11.78;74.41
30021;BME280;16861;52.294;7.760;2024-02-21T13:20:48;99383.47;;;11.80;74.94
30021;BME280;16861;52.294;7.760;2024-02-21T13:23:14;99384.88;;;11.86;75.62
30021;BME280;16861;52.294;7.760;2024-02-21T13:25:41;99397.00;;;11.89;75.28
30021;BME280;16861;52.294;7.760;2024-02-21T13:28:08;99431.09;;;11.92;75.23
30021;BME280;16861;52.294;7.760;2024-02-21T13:30:36;99422.13;;;11.94;74.94
30021;BME280;16861;52.294;7.760;2024-02-21T13:33:02;99432.56;;;11.96;74.85
30021;BME280;16861;52.294;7.760;2024-02-21T13:35:29;99439.72;;;11.94;73.95
30021;BME280;16861;52.294;7.760;2024-02-21T13:37:56;99412.63;;;11.92;73.95
30021;BME280;16861;52.294;7.760;2024-02-21T13:40:23;99418.91;;;11.89;73.00
30021;BME280;16861;52.294;7.760;2024-02-21T13:42:50;99407.53;;;11.89;73.35
30021;BME280;16861;52.294;7.760;2024-02-21T13:45:18;99392.69;;;11.88;73.83
30021;BME280;16861;52.294;7.760;2024-02-21T13:47:46;99401.66;;;11.85;73.15
30021;BME280;16861;52.294;7.760;2024-02-21T13:50:13;99379.91;;;11.81;72.99
30021;BME280;16861;52.294;7.760;2024-02-21T13:52:41;99370.31;;;11.80;73.33
30021;BME280;16861;52.294;7.760;2024-02-21T13:55:07;99368.72;;;11.78;73.29
30021;BME280;16861;52.294;7.760;2024-02-21T13:57:37;99362.69;;;11.76;73.51
30021;BME280;16861;52.294;7.760;2024-02-21T14:00:04;99355.84;;;11.73;73.43
30021;BME280;16861;52.294;7.760;2024-02-21T14:02:31;99342.75;;;11.71;73.18
30021;BME280;16861;52.294;7.760;2024-02-21T14:04:58;99334.03;;;11.71;73.24
30021;BME280;16861;52.294;7.760;2024-02-21T14:07:25;99327.69;;;11.73;73.44
30021;BME280;16861;52.294;7.760;2024-02-21T14:09:52;99316.09;;;11.76;73.49
30021;BME280;16861;52.294;7.760;2024-02-21T14:12:18;99297.41;;;11.79;73.39
30021;BME280;16861;52.294;7.760;2024-02-21T14:14:47;99299.81;;;11.82;74.00
30021;BME280;16861;52.294;7.760;2024-02-21T14:17:13;99272.28;;;11.86;73.73
30021;BME280;16861;52.294;7.760;2024-02-21T14:19:40;99263.31;;;11.89;73.79
30021;BME280;16861;52.294;7.760;2024-02-21T14:22:08;99242.00;;;11.92;73.85
30021;BME280;16861;52.294;7.760;2024-02-21T14:24:36;99228.50;;;11.97;73.95
30021;BME280;16861;52.294;7.760;2024-02-21T14:27:03;99200.22;;;11.99;73.96
30021;BME280;16861;52.294;7.760;2024-02-21T14:29:30;99187.78;;;12.01;74.35
30021;BME280;16861;52.294;7.760;2024-02-21T14:31:57;99198.06;;;12.04;74.36
30021;BME280;16861;52.294;7.760;2024-02-21T14:34:23;99195.34;;;12.06;74.33
30021;BME280;16861;52.294;7.760;2024-02-21T14:36:50;99201.28;;;12.09;74.52
30021;BME280;16861;52.294;7.760;2024-02-21T14:39:17;99193.22;;;12.11;74.63
30021;BME280;16861;52.294;7.760;2024-02-21T14:41:44;99185.19;;;12.12;73.83
30021;BME280;16861;52.294;7.760;2024-02-21T14:44:10;99179.09;;;12.12;73.88
30021;BME280;16861;52.294;7.760;2024-02-21T14:46:37;99178.25;;;12.11;73.69
30021;BME280;16861;52.294;7.760;2024-02-21T14:49:07;99178.34;;;12.10;73.75
30021;BME280;16861;52.294;7.760;2024-02-21T14:51:33;99175.00;;;12.08;73.74
30021;BME280;16861;52.294;7.760;2024-02-21T14:54:00;99157.50;;;12.07;73.54
30021;BME280;16861;52.294;7.760;2024-02-21T14:56:27;99155.88;;;12.04;73.54
30021;BME280;16861;52.294;7.760;2024-02-21T14:58:53;99149.78;;;12.04;73.93
30021;BME280;16861;52.294;7.760;2024-02-21T15:01:25;99135.84;;;12.02;73.98
30021;BME280;16861;52.294;7.760;2024-02-21T15:03:52;99135.00;;;12.01;74.05
30021;BME280;16861;52.294;7.760;2024-02-21T15:06:18;99124.56;;;11.99;73.78
30021;BME280;16861;52.294;7.760;2024-02-21T15:08:45;99125.53;;;11.98;73.81
30021;BME280;16861;52.294;7.760;2024-02-21T15:11:12;99124.78;;;11.96;73.88
30021;BME280;16861;52.294;7.760;2024-02-21T15:13:39;99111.59;;;11.96;73.91
30021;BME280;16861;52.294;7.760;2024-02-21T15:16:07;99102.97;;;11.94;73.07
30021;BME280;16861;52.294;7.760;2024-02-21T15:18:34;99101.41;;;11.92;73.40
30021;BME280;16861;52.294;7.760;2024-02-21T15:21:04;99088.31;;;11.90;73.33
30021;BME280;16861;52.294;7.760;2024-02-21T15:23:31;99091.06;;;11.89;73.57
30021;BME280;16861;52.294;7.760;2024-02-21T15:25:57;99080.75;;;11.85;73.04
30021;BME280;16861;52.294;7.760;2024-02-21T15:28:26;99077.38;;;11.83;72.83
30021;BME280;16861;52.294;7.760;2024-02-21T15:30:55;99073.19;;;11.81;72.86
30021;BME280;16861;52.294;7.760;2024-02-21T15:33:22;99078.66;;;11.78;72.92
30021;BME280;16861;52.294;7.760;2024-02-21T15:35:49;99059.59;;;11.74;72.54
30021;BME280;16861;52.294;7.760;2024-02-21T15:38:16;99057.19;;;11.71;72.67
30021;BME280;16861;52.294;7.760;2024-02-21T15:40:43;99049.50;;;11.68;72.78
30021;BME280;16861;52.294;7.760;2024-02-21T15:43:10;99037.38;;;11.65;73.09
30021;BME280;16861;52.294;7.760;2024-02-21T15:45:37;99029.59;;;11.64;73.26
30021;BME280;16861;52.294;7.760;2024-02-21T15:48:07;99034.97;;;11.62;72.81
30021;BME280;16861;52.294;7.760;2024-02-21T15:50:35;99030.66;;;11.61;72.94
30021;BME280;16861;52.294;7.760;2024-02-21T15:53:01;99035.06;;;11.60;73.58
30021;BME280;16861;52.294;7.760;2024-02-21T15:55:29;99029.09;;;11.58;72.75
30021;BME280;16861;52.294;7.760;2024-02-21T15:57:56;99026.44;;;11.58;73.29
30021;BME280;16861;52.294;7.760;2024-02-21T16:00:23;99022.25;;;11.56;73.12
30021;BME280;16861;52.294;7.760;2024-02-21T16:02:50;99029.28;;;11.55;73.00
30021;BME280;16861;52.294;7.760;2024-02-21T16:05:16;99020.69;;;11.53;72.55
30021;BME280;16861;52.294;7.760;2024-02-21T16:07:44;99021.63;;;11.52;73.07
30021;BME280;16861;52.294;7.760;2024-02-21T16:10:10;99027.84;;;11.51;73.02
30021;BME280;16861;52.294;7.760;2024-02-21T16:12:37;99018.47;;;11.47;72.49
30021;BME280;16861;52.294;7.760;2024-02-21T16:15:08;99032.59;;;11.46;72.16
30021;BME280;16861;52.294;7.760;2024-02-21T16:17:34;99025.66;;;11.45;73.02
30021;BME280;16861;52.294;7.760;2024-02-21T16:20:01;99015.13;;;11.45;72.96
30021;BME280;16861;52.294;7.760;2024-02-21T16:22:29;99002.91;;;11.44;73.57
30021;BME280;16861;52.294;7.760;2024-02-21T16:24:58;99007.44;;;11.42;73.38
30021;BME280;16861;52.294;7.760;2024-02-21T16:27:24;99003.97;;;11.41;73.19
30021;BME280;16861;52.294;7.760;2024-02-21T16:29:51;98996.19;;;11.40;72.61
30021;BME280;16861;52.294;7.760;2024-02-21T16:32:17;98989.19;;;11.39;72.99
30021;BME280;16861;52.294;7.760;2024-02-21T16:34:44;98988.28;;;11.40;73.20
30021;BME280;16861;52.294;7.760;2024-02-21T16:37:11;98982.16;;;11.39;73.29
30021;BME280;16861;52.294;7.760;2024-02-21T16:39:39;98969.94;;;11.38;73.22
30021;BME280;16861;52.294;7.760;2024-02-21T16:42:06;98971.50;;;11.41;73.49
30021;BME280;16861;52.294;7.760;2024-02-21T16:44:33;98970.66;;;11.40;73.35
30021;BME280;16861;52.294;7.760;2024-02-21T16:47:00;98967.06;;;11.41;73.58
30021;BME280;16861;52.294;7.760;2024-02-21T16:49:26;98960.84;;;11.42;73.79
30021;BME280;16861;52.294;7.760;2024-02-21T16:51:53;98961.66;;;11.43;73.55
30021;BME280;16861;52.294;7.760;2024-02-21T16:54:21;98960.84;;;11.42;73.62
30021;BME280;16861;52.294;7.760;2024-02-21T16:56:48;98948.50;;;11.43;73.57
30021;BME280;16861;52.294;7.760;2024-02-21T16:59:14;98938.81;;;11.43;73.44
30021;BME280;16861;52.294;7.760;2024-02-21T17:01:41;98948.38;;;11.44;73.61
30021;BME280;16861;52.294;7.760;2024-02-21T17:04:09;98928.16;;;11.45;73.45
30021;BME280;16861;52.294;7.760;2024-02-21T17:06:36;98935.09;;;11.46;73.73
30021;BME280;16861;52.294;7.760;2024-02-21T17:09:03;98924.56;;;11.46;73.65
30021;BME280;16861;52.294;7.760;2024-02-21T17:11:30;98917.50;;;11.46;73.68
30021;BME280;16861;52.294;7.760;2024-02-21T17:13:57;98908.63;;;11.47;73.69
30021;BME280;16861;52.294;7.760;2024-02-21T17:16:24;98896.31;;;11.48;73.87
30021;BME280;16861;52.294;7.760;2024-02-21T17:18:50;98885.78;;;11.48;73.90
30021;BME280;16861;52.294;7.760;2024-02-21T17:26:53;98871.41;;;11.52;74.19
30021;BME280;16861;52.294;7.760;2024-02-21T17:29:20;98864.22;;;11.54;74.00
30021;BME280;16861;52.294;7.760;2024-02-21T17:31:46;98862.53;;;11.53;74.00
30021;BME280;16861;52.294;7.760;2024-02-21T17:34:13;98865.19;;;11.53;73.72
30021;BME280;16861;52.294;7.760;2024-02-21T17:36:40;98858.94;;;11.54;73.76
30021;BME280;16861;52.294;7.760;2024-02-21T17:39:06;98845.75;;;11.54;73.59
30021;BME280;16861;52.294;7.760;2024-02-21T17:41:35;98850.19;;;11.54;73.66
30021;BME280;16861;52.294;7.760;2024-02-21T17:44:02;98850.19;;;11.54;74.01
30021;BME280;16861;52.294;7.760;2024-02-21T17:46:29;98840.72;;;11.51;73.20
30021;BME280;16861;52.294;7.760;2024-02-21T17:48:56;98837.38;;;11.49;73.35
30021;BME280;16861;52.294;7.760;2024-02-21T17:51:23;98830.66;;;11.45;72.86
30021;BME280;16861;52.294;7.760;2024-02-21T17:53:50;98826.34;;;11.44;73.09
30021;BME280;16861;52.294;7.760;2024-02-21T17:56:17;98820.44;;;11.40;73.37
30021;BME280;16861;52.294;7.760;2024-02-21T17:58:45;98815.44;;;11.37;73.14
30021;BME280;16861;52.294;7.760;2024-02-21T18:01:12;98805.94;;;11.34;72.89
30021;BME280;16861;52.294;7.760;2024-02-21T18:03:38;98800.06;;;11.31;73.64
30021;BME280;16861;52.294;7.760;2024-02-21T18:06:05;98804.00;;;11.25;73.07
30021;BME280;16861;52.294;7.760;2024-02-21T18:08:32;98794.66;;;11.21;72.63
30021;BME280;16861;52.294;7.760;2024-02-21T18:10:59;98792.50;;;11.15;72.39
30021;BME280;16861;52.294;7.760;2024-02-21T18:13:26;98784.00;;;11.11;72.81
30021;BME280;16861;52.294;7.760;2024-02-21T18:16:02;98762.88;;;11.00;70.75
30021;BME280;16861;52.294;7.760;2024-02-21T18:18:29;98765.63;;;10.98;72.88
30021;BME280;16861;52.294;7.760;2024-02-21T18:20:57;98753.63;;;10.94;73.37
30021;BME280;16861;52.294;7.760;2024-02-21T18:23:27;98771.47;;;10.90;73.59
30021;BME280;16861;52.294;7.760;2024-02-21T18:25:55;98742.94;;;10.84;73.49
30021;BME280;16861;52.294;7.760;2024-02-21T18:28:21;98739.81;;;10.79;73.29